Geervliet — PCLI — position and weather

sailwx.info

Track history (hours):
 
Tides and Currents Weather Stations Pressure Air Temp Water Temp Dewpoint Dewpoint Depression Visibility Wind Speed Wind Dir Waves Ship Positions

Geervliet

Last reported at 2016-Dec-05 02:29 UTC. Time now 2016-Dec-05 18:40 UTC.
Position N 40°17' E 003°34'.

Length 86 m; draft 4.3 m.

Type: Ship. MMSI: 246803000.

Date/timePositionNaut miles runAvg speedWind from/ knotsBaromVisibWave heightAir tempDewpointWater temp
2016-Dec-05 02:29N 40°17' E 003°34'10 9.6
2016-Dec-05 01:24N 40°12' E 003°21'10 9.5
2016-Dec-05 00:21N 40°07' E 003°10'7 9.3
2016-Dec-04 23:33N 40°03' E 003°02'9 9.3
2016-Dec-04 22:33N 39°58' E 002°52'10 9.8
2016-Dec-04 21:33N 39°52' E 002°42'1110.6
2016-Dec-04 20:33N 39°47' E 002°30'1110.8
2016-Dec-04 19:33N 39°41' E 002°18'1111.2
2016-Dec-04 18:33N 39°35' E 002°06'1110.9
2016-Dec-04 17:33N 39°28' E 001°55'1110.8
2016-Dec-04 16:33N 39°22' E 001°44'1111.0
2016-Dec-04 15:32N 39°14' E 001°33'13211.0
2016-Dec-04 03:33N 37°39' W 000°23'1110.6
2016-Dec-04 02:33N 37°31' W 000°32'1211.2
2016-Dec-04 01:31N 37°24' W 000°43'10111.0
2016-Dec-03 16:18N 36°21' W 002°23'1111.2
2016-Dec-03 15:19N 36°20' W 002°36'12811.7
2016-Dec-03 04:21N 36°00' W 005°13'1012.8
2016-Dec-03 03:33N 35°58' W 005°26'259 9.6
2016-Dec-02 00:33N 38°19' W 009°59'1111.3
2016-Dec-01 23:33N 38°30' W 010°02'1111.0
2016-Dec-01 22:33N 38°41' W 010°05'1110.5
2016-Dec-01 21:33N 38°52' W 010°06'1110.9
2016-Dec-01 20:33N 39°03' W 010°06'  
2016-Nov-29 11:33N 48°04' W 006°28'4911.6
2016-Nov-29 07:19N 48°46' W 005°52'911.4
2016-Nov-29 06:34N 48°54' W 005°45'9710.7
2016-Nov-28 21:30N 49°44' W 003°38'1111.2
2016-Nov-28 20:33N 49°49' W 003°24'1010.3
2016-Nov-28 19:33N 49°54' W 003°10'10 9.6
2016-Nov-28 18:34N 49°59' W 002°57'10 9.6
2016-Nov-28 17:33N 50°02' W 002°42'2711.0
2016-Nov-28 15:07N 50°10' W 002°03'713.3
2016-Nov-28 14:33N 50°12' W 001°52'1413.8
2016-Nov-28 13:33N 50°16' W 001°31'4313.0
2016-Nov-28 10:14N 50°27' W 000°26'710.8
2016-Nov-28 09:33N 50°29' W 000°15'1010.1
2016-Nov-28 08:33N 50°32' E 000°01'10 9.5
2016-Nov-28 07:33N 50°34' E 000°15'3511.4
2016-Nov-28 04:30N 50°52' E 001°03'1213.0
2016-Nov-28 03:33N 50°59' E 001°18'1212.2
2016-Nov-28 02:33N 51°07' E 001°32'1110.6
2016-Nov-28 01:33N 51°14' E 001°45'10 9.9
2016-Nov-28 00:33N 51°23' E 001°52'10 9.8
2016-Nov-27 23:33N 51°31' E 002°01'1110.8
2016-Nov-27 22:32N 51°39' E 002°13'14911.2
2016-Nov-27 09:15N 53°33' E 004°52'811.5
2016-Nov-27 08:33N 53°36' E 005°04'1111.0
2016-Nov-27 07:33N 53°39' E 005°22'1010.3
2016-Nov-27 06:33N 53°43' E 005°38'1010.1
2016-Nov-27 05:33N 53°46' E 005°55'25 4.8
2016-Nov-27 00:18N 53°55' E 006°34'0 0.0
2016-Nov-26 23:33N 53°55' E 006°34'0 0.0
2016-Nov-26 22:31N 53°55' E 006°34'3 2.8
2016-Nov-26 21:29N 53°53' E 006°39'1110.8
2016-Nov-26 20:26N 53°56' E 006°58'3010.1
2016-Nov-26 17:27N 54°02' E 007°48'910.4
2016-Nov-26 16:33N 54°02' E 008°03'1211.6
2016-Nov-26 15:33N 53°60' E 008°23'1313.3
2016-Nov-26 14:34N 53°53' E 008°43'1312.6
2016-Nov-26 13:33N 53°52' E 009°04'1111.0
2016-Nov-26 12:33N 53°49' E 009°22'1010.3
2016-Nov-26 11:33N 53°40' E 009°31'9 9.3
2016-Nov-26 10:33N 53°34' E 009°42'9 8.7
2016-Nov-26 09:33N 53°32' E 009°56'3 3.1
2016-Nov-26 08:33N 53°29' E 009°59'0 0.0
2016-Nov-26 07:33N 53°29' E 009°59'0 0.0
2016-Nov-26 06:33N 53°29' E 009°59'0 0.0
2016-Nov-26 05:33N 53°29' E 009°59'0 0.0
2016-Nov-26 04:33N 53°29' E 009°59'0 0.0
2016-Nov-26 03:33N 53°29' E 009°59'0 0.0
2016-Nov-26 02:33N 53°29' E 009°59'0 0.0
2016-Nov-26 01:33N 53°29' E 009°59'0 0.0
2016-Nov-26 00:33N 53°29' E 009°59'0 0.0
2016-Nov-25 23:33N 53°29' E 009°59'1 0.9
2016-Nov-25 22:33N 53°30' E 009°58'4 3.6
2016-Nov-25 21:33N 53°32' E 009°54'1110.6
2016-Nov-25 20:33N 53°35' E 009°36'1212.4
2016-Nov-25 19:33N 53°45' E 009°24'1111.0
2016-Nov-25 18:33N 53°53' E 009°10'1010.4
2016-Nov-25 17:33N 53°50' E 008°53'8 8.4
2016-Nov-25 16:33N 53°55' E 008°41'9 9.0
2016-Nov-25 15:33N 53°59' E 008°27'1010.5
2016-Nov-25 14:33N 53°59' E 008°09'7 6.6
2016-Nov-25 13:33N 53°54' E 008°03'1212.4
2016-Nov-25 12:33N 53°44' E 008°16'1212.3
2016-Nov-25 11:34N 53°36' E 008°31'9 8.5
2016-Nov-25 10:33N 53°27' E 008°29'6 5.8
2016-Nov-25 09:33N 53°21' E 008°30'0 0.0
2016-Nov-25 08:33N 53°21' E 008°30'0 0.0
2016-Nov-25 07:33N 53°21' E 008°30'0 0.0
2016-Nov-25 06:33N 53°21' E 008°30'0 0.0
2016-Nov-25 05:34N 53°21' E 008°30'0 0.0
2016-Nov-25 04:33N 53°21' E 008°30'0 0.0
2016-Nov-25 03:33N 53°21' E 008°30'0 0.0
2016-Nov-25 02:34N 53°21' E 008°30'  
Track history (hours):
 
Tides and Currents Weather Stations Pressure Air Temp Water Temp Dewpoint Dewpoint Depression Visibility Wind Speed Wind Dir Waves Ship Positions

Geervliet

Last reported at 2016-Dec-05 02:29 UTC. Time now 2016-Dec-05 18:40 UTC.
Position N 40°17' E 003°34'.

Length 86 m; draft 4.3 m.

Type: Ship. MMSI: 246803000.

Date/timePositionNaut miles runAvg speedWind from/ knotsBaromVisibWave heightAir tempDewpointWater temp
2016-Dec-05 02:29N 40°17' E 003°34'10 9.6
2016-Dec-05 01:24N 40°12' E 003°21'10 9.5
2016-Dec-05 00:21N 40°07' E 003°10'7 9.3
2016-Dec-04 23:33N 40°03' E 003°02'9 9.3
2016-Dec-04 22:33N 39°58' E 002°52'10 9.8
2016-Dec-04 21:33N 39°52' E 002°42'1110.6
2016-Dec-04 20:33N 39°47' E 002°30'1110.8
2016-Dec-04 19:33N 39°41' E 002°18'1111.2
2016-Dec-04 18:33N 39°35' E 002°06'1110.9
2016-Dec-04 17:33N 39°28' E 001°55'1110.8
2016-Dec-04 16:33N 39°22' E 001°44'1111.0
2016-Dec-04 15:32N 39°14' E 001°33'13211.0
2016-Dec-04 03:33N 37°39' W 000°23'1110.6
2016-Dec-04 02:33N 37°31' W 000°32'1211.2
2016-Dec-04 01:31N 37°24' W 000°43'10111.0
2016-Dec-03 16:18N 36°21' W 002°23'1111.2
2016-Dec-03 15:19N 36°20' W 002°36'12811.7
2016-Dec-03 04:21N 36°00' W 005°13'1012.8
2016-Dec-03 03:33N 35°58' W 005°26'259 9.6
2016-Dec-02 00:33N 38°19' W 009°59'1111.3
2016-Dec-01 23:33N 38°30' W 010°02'1111.0
2016-Dec-01 22:33N 38°41' W 010°05'1110.5
2016-Dec-01 21:33N 38°52' W 010°06'1110.9
2016-Dec-01 20:33N 39°03' W 010°06'  
2016-Nov-29 11:33N 48°04' W 006°28'4911.6
2016-Nov-29 07:19N 48°46' W 005°52'911.4
2016-Nov-29 06:34N 48°54' W 005°45'9710.7
2016-Nov-28 21:30N 49°44' W 003°38'1111.2
2016-Nov-28 20:33N 49°49' W 003°24'1010.3
2016-Nov-28 19:33N 49°54' W 003°10'10 9.6
2016-Nov-28 18:34N 49°59' W 002°57'10 9.6
2016-Nov-28 17:33N 50°02' W 002°42'2711.0
2016-Nov-28 15:07N 50°10' W 002°03'713.3
2016-Nov-28 14:33N 50°12' W 001°52'1413.8
2016-Nov-28 13:33N 50°16' W 001°31'4313.0
2016-Nov-28 10:14N 50°27' W 000°26'710.8
2016-Nov-28 09:33N 50°29' W 000°15'1010.1
2016-Nov-28 08:33N 50°32' E 000°01'10 9.5
2016-Nov-28 07:33N 50°34' E 000°15'3511.4
2016-Nov-28 04:30N 50°52' E 001°03'1213.0
2016-Nov-28 03:33N 50°59' E 001°18'1212.2
2016-Nov-28 02:33N 51°07' E 001°32'1110.6
2016-Nov-28 01:33N 51°14' E 001°45'10 9.9
2016-Nov-28 00:33N 51°23' E 001°52'10 9.8
2016-Nov-27 23:33N 51°31' E 002°01'1110.8
2016-Nov-27 22:32N 51°39' E 002°13'14911.2
2016-Nov-27 09:15N 53°33' E 004°52'811.5
2016-Nov-27 08:33N 53°36' E 005°04'1111.0
2016-Nov-27 07:33N 53°39' E 005°22'1010.3
2016-Nov-27 06:33N 53°43' E 005°38'1010.1
2016-Nov-27 05:33N 53°46' E 005°55'25 4.8
2016-Nov-27 00:18N 53°55' E 006°34'0 0.0
2016-Nov-26 23:33N 53°55' E 006°34'0 0.0
2016-Nov-26 22:31N 53°55' E 006°34'3 2.8
2016-Nov-26 21:29N 53°53' E 006°39'1110.8
2016-Nov-26 20:26N 53°56' E 006°58'3010.1
2016-Nov-26 17:27N 54°02' E 007°48'910.4
2016-Nov-26 16:33N 54°02' E 008°03'1211.6
2016-Nov-26 15:33N 53°60' E 008°23'1313.3
2016-Nov-26 14:34N 53°53' E 008°43'1312.6
2016-Nov-26 13:33N 53°52' E 009°04'1111.0
2016-Nov-26 12:33N 53°49' E 009°22'1010.3
2016-Nov-26 11:33N 53°40' E 009°31'9 9.3
2016-Nov-26 10:33N 53°34' E 009°42'9 8.7
2016-Nov-26 09:33N 53°32' E 009°56'3 3.1
2016-Nov-26 08:33N 53°29' E 009°59'0 0.0
2016-Nov-26 07:33N 53°29' E 009°59'0 0.0
2016-Nov-26 06:33N 53°29' E 009°59'0 0.0
2016-Nov-26 05:33N 53°29' E 009°59'0 0.0
2016-Nov-26 04:33N 53°29' E 009°59'0 0.0
2016-Nov-26 03:33N 53°29' E 009°59'0 0.0
2016-Nov-26 02:33N 53°29' E 009°59'0 0.0
2016-Nov-26 01:33N 53°29' E 009°59'0 0.0
2016-Nov-26 00:33N 53°29' E 009°59'0 0.0
2016-Nov-25 23:33N 53°29' E 009°59'1 0.9
2016-Nov-25 22:33N 53°30' E 009°58'4 3.6
2016-Nov-25 21:33N 53°32' E 009°54'1110.6
2016-Nov-25 20:33N 53°35' E 009°36'1212.4
2016-Nov-25 19:33N 53°45' E 009°24'1111.0
2016-Nov-25 18:33N 53°53' E 009°10'1010.4
2016-Nov-25 17:33N 53°50' E 008°53'8 8.4
2016-Nov-25 16:33N 53°55' E 008°41'9 9.0
2016-Nov-25 15:33N 53°59' E 008°27'1010.5
2016-Nov-25 14:33N 53°59' E 008°09'7 6.6
2016-Nov-25 13:33N 53°54' E 008°03'1212.4
2016-Nov-25 12:33N 53°44' E 008°16'1212.3
2016-Nov-25 11:34N 53°36' E 008°31'9 8.5
2016-Nov-25 10:33N 53°27' E 008°29'6 5.8
2016-Nov-25 09:33N 53°21' E 008°30'0 0.0
2016-Nov-25 08:33N 53°21' E 008°30'0 0.0
2016-Nov-25 07:33N 53°21' E 008°30'0 0.0
2016-Nov-25 06:33N 53°21' E 008°30'0 0.0
2016-Nov-25 05:34N 53°21' E 008°30'0 0.0
2016-Nov-25 04:33N 53°21' E 008°30'0 0.0
2016-Nov-25 03:33N 53°21' E 008°30'0 0.0
2016-Nov-25 02:34N 53°21' E 008°30'  

Dump ship's entire track history